Terminal Aerodrome Forecast
Issued by NWS Bismarck, ND

Home | Current Version | Previous Version | Graphics & Text | Print | Product List | Glossary On
Versions: 1 2 3 4 5 6 7 8 9 10 11 12 13 14 15
745
FTUS43 KBIS 061729
TAFISN
TAF
KISN 061729Z 0618/0718 25016G24KT P6SM SCT200 WS020/28050KT
     FM062100 27028G38KT P6SM BKN120
     FM071300 32030G41KT P6SM OVC025=

USA.gov is the U.S. government's official web portal to all federal, state and local government web resources and services.